createdAt,value
2023-04-09T00:02:14.784Z,33.06
2023-04-09T00:04:41.471Z,33.00
2023-04-09T00:07:08.286Z,34.28
2023-04-09T00:09:34.976Z,32.70
2023-04-09T00:12:02.088Z,32.57
2023-04-09T00:14:29.096Z,32.34
2023-04-09T00:16:56.072Z,33.15
2023-04-09T00:19:22.718Z,32.63
2023-04-09T00:21:49.401Z,32.67
2023-04-09T00:24:16.017Z,34.40
2023-04-09T00:26:42.587Z,34.39
2023-04-09T00:29:09.254Z,33.92
2023-04-09T00:31:35.973Z,33.38
2023-04-09T00:34:02.655Z,33.30
2023-04-09T00:36:29.273Z,33.38
2023-04-09T00:38:56.067Z,33.83
2023-04-09T00:41:22.716Z,33.47
2023-04-09T00:43:49.316Z,33.41
2023-04-09T00:46:17.709Z,33.35
2023-04-09T00:48:44.557Z,33.06
2023-04-09T00:51:11.251Z,33.98
2023-04-09T00:53:38.070Z,33.82
2023-04-09T00:56:05.733Z,33.95
2023-04-09T00:58:32.398Z,33.95
2023-04-09T01:00:59.190Z,34.58
2023-04-09T01:03:26.174Z,35.17
2023-04-09T01:06:12.398Z,35.71
2023-04-09T01:08:46.370Z,34.54
2023-04-09T01:11:34.444Z,33.39
2023-04-09T01:14:03.855Z,33.59
2023-04-09T01:16:34.185Z,33.38
2023-04-09T01:19:11.205Z,33.82
2023-04-09T01:21:40.305Z,33.26
2023-04-09T01:24:33.438Z,33.56
2023-04-09T01:27:08.102Z,33.73
2023-04-09T01:29:41.668Z,33.45
2023-04-09T01:32:10.586Z,33.19
2023-04-09T01:34:38.961Z,33.37
2023-04-09T01:37:08.520Z,33.72
2023-04-09T01:39:38.461Z,33.23
2023-04-09T01:42:11.006Z,33.33
2023-04-09T01:44:40.144Z,33.84
2023-04-09T01:47:08.280Z,34.37
2023-04-09T01:49:36.078Z,33.12
2023-04-09T01:52:03.255Z,33.95
2023-04-09T01:54:29.868Z,34.78
2023-04-09T01:56:57.808Z,35.17
2023-04-09T01:59:24.613Z,34.69
2023-04-09T02:02:08.015Z,33.69
2023-04-09T02:04:40.339Z,34.51
2023-04-09T02:07:14.831Z,34.21
2023-04-09T02:09:44.450Z,34.54
2023-04-09T02:12:16.452Z,34.50
2023-04-09T02:14:46.792Z,34.53
2023-04-09T02:17:13.731Z,34.67
2023-04-09T02:19:42.046Z,34.80
2023-04-09T02:22:10.197Z,34.71
2023-04-09T02:24:36.868Z,35.16
2023-04-09T02:27:04.030Z,35.61
2023-04-09T02:29:31.294Z,35.56
2023-04-09T02:31:58.168Z,35.47
2023-04-09T02:34:24.860Z,35.28
2023-04-09T02:36:51.472Z,35.23
2023-04-09T02:39:18.437Z,36.12
2023-04-09T02:41:45.115Z,36.01
2023-04-09T02:44:11.720Z,36.35
2023-04-09T02:46:39.515Z,35.78
2023-04-09T02:49:06.225Z,36.87
2023-04-09T02:51:35.671Z,35.92
2023-04-09T02:54:03.181Z,36.63
2023-04-09T02:56:29.848Z,36.06
2023-04-09T02:58:56.479Z,36.19
2023-04-09T03:01:23.286Z,35.82
2023-04-09T03:03:50.396Z,35.22
2023-04-09T03:06:18.541Z,36.29
2023-04-09T03:08:45.791Z,35.74
2023-04-09T03:11:12.454Z,34.95
2023-04-09T03:13:39.110Z,35.39
2023-04-09T03:16:06.160Z,35.30
2023-04-09T03:18:32.855Z,34.61
2023-04-09T03:20:59.442Z,34.46
2023-04-09T03:23:26.066Z,34.21
2023-04-09T03:26:04.006Z,33.46
2023-04-09T03:28:31.091Z,33.78
2023-04-09T03:30:57.917Z,33.25
2023-04-09T03:33:25.733Z,32.59
2023-04-09T03:35:52.686Z,33.15
2023-04-09T03:38:19.743Z,32.83
2023-04-09T03:40:46.717Z,33.30
2023-04-09T03:43:13.416Z,32.91
2023-04-09T03:45:40.006Z,33.61
2023-04-09T03:48:06.678Z,32.77
2023-04-09T03:50:39.470Z,32.88
2023-04-09T03:53:06.123Z,33.78
2023-04-09T03:55:32.795Z,33.86
2023-04-09T03:57:59.548Z,33.29
2023-04-09T04:00:26.171Z,32.40
2023-04-09T04:02:53.046Z,32.55
2023-04-09T04:05:22.382Z,32.68
2023-04-09T04:07:49.006Z,33.63
2023-04-09T04:10:15.741Z,33.21
2023-04-09T04:12:42.391Z,32.30
2023-04-09T04:15:09.441Z,33.08
2023-04-09T04:17:36.061Z,33.22
2023-04-09T04:20:03.088Z,32.97
2023-04-09T04:22:29.704Z,33.13
2023-04-09T04:24:56.349Z,32.96
2023-04-09T04:27:22.950Z,33.12
2023-04-09T04:29:49.637Z,32.29
2023-04-09T04:32:16.205Z,32.01
2023-04-09T04:34:42.861Z,32.19
2023-04-09T04:37:09.425Z,32.48
2023-04-09T04:39:36.020Z,32.78
2023-04-09T04:42:02.574Z,32.95
2023-04-09T04:44:29.305Z,33.04
2023-04-09T04:46:55.946Z,32.85
2023-04-09T04:49:22.590Z,32.33
2023-04-09T04:51:49.201Z,33.38
2023-04-09T04:54:15.854Z,33.06
2023-04-09T04:56:42.435Z,32.87
2023-04-09T04:59:08.984Z,33.27
2023-04-09T05:01:35.665Z,32.58
2023-04-09T05:04:03.252Z,33.30
2023-04-09T05:06:30.058Z,32.56
2023-04-09T05:08:58.104Z,32.87
2023-04-09T05:11:25.478Z,33.33
2023-04-09T05:13:52.052Z,32.63
2023-04-09T05:16:22.034Z,33.42
2023-04-09T05:18:48.678Z,34.10
2023-04-09T05:21:15.401Z,33.59
2023-04-09T05:23:42.730Z,33.20
2023-04-09T05:26:09.316Z,32.45
2023-04-09T05:28:36.405Z,33.54
2023-04-09T05:31:03.054Z,34.00
2023-04-09T05:33:29.767Z,34.28
2023-04-09T05:35:56.414Z,34.23
2023-04-09T05:38:23.047Z,34.95
2023-04-09T05:40:49.697Z,34.37
2023-04-09T05:43:16.487Z,34.73
2023-04-09T05:45:43.271Z,35.50
2023-04-09T05:48:10.008Z,36.63
2023-04-09T05:50:51.056Z,36.41
2023-04-09T05:53:21.609Z,38.71
2023-04-09T05:55:51.329Z,39.05
2023-04-09T05:58:21.615Z,38.86
2023-04-09T06:00:48.306Z,39.12
2023-04-09T06:03:15.023Z,40.02
2023-04-09T06:05:41.737Z,39.57
2023-04-09T06:08:08.344Z,38.49
2023-04-09T06:10:34.997Z,38.50
2023-04-09T06:13:01.585Z,39.49
2023-04-09T06:15:28.273Z,39.14
2023-04-09T06:17:55.986Z,38.41
2023-04-09T06:20:24.104Z,39.48
2023-04-09T06:22:50.705Z,39.57
2023-04-09T06:25:17.364Z,38.71
2023-04-09T06:27:44.211Z,36.99
2023-04-09T06:30:11.486Z,36.79
2023-04-09T06:32:51.109Z,36.87
2023-04-09T06:35:20.955Z,36.83
2023-04-09T06:37:47.549Z,35.61
2023-04-09T06:40:14.765Z,35.05
2023-04-09T06:42:41.461Z,34.18
2023-04-09T06:45:08.863Z,33.00
2023-04-09T06:47:36.204Z,32.14
2023-04-09T06:50:03.253Z,32.54
2023-04-09T06:52:29.934Z,31.57
2023-04-09T06:54:56.499Z,30.82
2023-04-09T06:57:23.144Z,30.67
2023-04-09T06:59:49.753Z,30.61
2023-04-09T07:02:16.796Z,30.68
2023-04-09T07:04:43.685Z,30.55
2023-04-09T07:07:10.573Z,30.42
2023-04-09T07:09:37.230Z,30.26
2023-04-09T07:12:03.829Z,30.90
2023-04-09T07:14:30.589Z,30.94
2023-04-09T07:16:57.263Z,30.99
2023-04-09T07:19:23.903Z,29.78
2023-04-09T07:21:50.994Z,29.52
2023-04-09T07:24:17.596Z,29.84
2023-04-09T07:26:44.230Z,29.33
2023-04-09T07:29:11.007Z,28.47
2023-04-09T07:31:37.683Z,28.28
2023-04-09T07:34:04.509Z,27.81
2023-04-09T07:36:31.839Z,27.63
2023-04-09T07:38:58.566Z,27.09
2023-04-09T07:41:25.235Z,27.45
2023-04-09T07:43:52.019Z,26.39
2023-04-09T07:46:20.780Z,27.52
2023-04-09T07:48:48.487Z,27.54
2023-04-09T07:51:15.316Z,27.47
2023-04-09T07:53:41.988Z,27.31
2023-04-09T07:56:08.585Z,27.40
2023-04-09T07:58:36.219Z,27.35
2023-04-09T08:01:02.987Z,26.59
2023-04-09T08:03:29.855Z,27.02
2023-04-09T08:05:56.793Z,26.70
2023-04-09T08:08:23.475Z,26.98
2023-04-09T08:10:50.644Z,26.81
2023-04-09T08:13:17.249Z,27.30
2023-04-09T08:15:43.825Z,27.04
2023-04-09T08:18:10.449Z,28.02
2023-04-09T08:20:37.107Z,27.45
2023-04-09T08:23:03.758Z,26.81
2023-04-09T08:25:30.650Z,27.16
2023-04-09T08:27:58.081Z,27.37
2023-04-09T08:30:24.755Z,27.24
2023-04-09T08:32:51.383Z,27.56
2023-04-09T08:35:18.043Z,27.83
2023-04-09T08:37:44.680Z,28.99
2023-04-09T08:40:11.970Z,29.18
2023-04-09T08:42:46.460Z,29.99
2023-04-09T08:45:13.922Z,29.48
2023-04-09T08:47:45.493Z,30.08
2023-04-09T08:50:12.122Z,31.05
2023-04-09T08:52:40.272Z,30.71
2023-04-09T08:55:08.354Z,30.62
2023-04-09T08:57:39.189Z,30.52
2023-04-09T09:00:06.934Z,30.95
2023-04-09T09:02:33.684Z,31.63
2023-04-09T09:05:00.965Z,31.62
2023-04-09T09:07:29.664Z,32.40
2023-04-09T09:09:59.444Z,33.26
2023-04-09T09:12:31.105Z,32.97
2023-04-09T09:14:58.129Z,33.10
2023-04-09T09:17:24.875Z,34.49
2023-04-09T09:19:51.760Z,34.48
2023-04-09T09:22:18.403Z,34.06
2023-04-09T09:24:50.552Z,33.84
2023-04-09T09:27:36.633Z,34.55
2023-04-09T09:30:05.721Z,35.88
2023-04-09T09:32:33.553Z,35.47
2023-04-09T09:35:01.972Z,33.24
2023-04-09T09:37:29.803Z,34.22
2023-04-09T09:39:56.949Z,34.32
2023-04-09T09:42:23.845Z,32.56
2023-04-09T09:44:51.545Z,32.02
2023-04-09T09:47:22.331Z,32.06
2023-04-09T09:49:52.272Z,31.73
2023-04-09T09:52:26.177Z,32.41
2023-04-09T09:54:54.925Z,31.60
2023-04-09T09:57:26.149Z,33.03
2023-04-09T10:00:04.251Z,30.56
2023-04-09T10:02:40.677Z,29.87
2023-04-09T10:05:08.947Z,28.81
2023-04-09T10:07:37.356Z,28.80
2023-04-09T10:10:06.554Z,27.33
2023-04-09T10:12:34.722Z,27.27
2023-04-09T10:15:04.678Z,27.57
2023-04-09T10:17:32.451Z,27.21
2023-04-09T10:20:12.731Z,26.80
2023-04-09T10:22:40.110Z,27.12
2023-04-09T10:25:07.449Z,26.14
2023-04-09T10:27:34.084Z,25.42
2023-04-09T10:30:01.754Z,25.06
2023-04-09T10:32:36.190Z,25.89
2023-04-09T10:35:04.219Z,25.11
2023-04-09T10:37:30.981Z,25.94
2023-04-09T10:39:58.664Z,26.51
2023-04-09T10:42:37.128Z,25.70
2023-04-09T10:45:14.880Z,26.39
2023-04-09T10:47:43.784Z,26.15
2023-04-09T10:50:17.108Z,25.45
2023-04-09T10:52:44.371Z,25.19
2023-04-09T10:55:49.348Z,25.23
2023-04-09T10:58:16.104Z,25.23
2023-04-09T11:00:45.198Z,24.11
2023-04-09T11:03:12.115Z,23.42
2023-04-09T11:05:40.521Z,23.01
2023-04-09T11:08:12.255Z,23.40
2023-04-09T11:10:42.050Z,22.69
2023-04-09T11:13:15.861Z,21.13
2023-04-09T11:15:43.480Z,20.86
2023-04-09T11:18:14.715Z,19.97
2023-04-09T11:20:41.400Z,19.08
2023-04-09T11:23:08.028Z,19.11
2023-04-09T11:25:35.641Z,18.02
2023-04-09T11:28:08.046Z,17.10
2023-04-09T11:30:37.434Z,16.48
2023-04-09T11:33:04.268Z,16.07
2023-04-09T11:35:35.206Z,16.07
2023-04-09T11:38:06.708Z,15.65
2023-04-09T11:40:33.460Z,15.78
2023-04-09T11:43:01.016Z,16.18
2023-04-09T11:45:30.343Z,15.43
2023-04-09T11:47:57.865Z,15.52
2023-04-09T11:50:25.245Z,14.33
2023-04-09T11:52:52.487Z,14.60
2023-04-09T11:55:29.667Z,14.85
2023-04-09T11:58:02.977Z,15.29
2023-04-09T12:00:29.794Z,15.16
2023-04-09T12:03:03.004Z,14.76
2023-04-09T12:05:32.329Z,14.42
2023-04-09T12:08:01.248Z,14.70
2023-04-09T12:10:32.678Z,14.09
2023-04-09T12:13:07.428Z,14.07
2023-04-09T12:15:36.822Z,14.03
2023-04-09T12:18:04.207Z,12.75
2023-04-09T12:20:36.665Z,13.00
2023-04-09T12:23:04.886Z,12.58
2023-04-09T12:25:36.708Z,13.85
2023-04-09T12:28:07.564Z,13.28
2023-04-09T12:30:35.551Z,12.98
2023-04-09T12:33:04.133Z,13.23
2023-04-09T12:35:31.081Z,13.06
2023-04-09T12:37:59.407Z,12.96
2023-04-09T12:40:27.023Z,13.49
2023-04-09T12:42:54.131Z,13.56
2023-04-09T12:45:21.354Z,14.25
2023-04-09T12:47:48.487Z,14.50
2023-04-09T12:50:16.260Z,15.66
2023-04-09T12:52:44.213Z,14.45
2023-04-09T12:55:12.830Z,14.45
2023-04-09T12:57:42.139Z,14.08
2023-04-09T13:00:09.455Z,15.57
2023-04-09T13:02:36.960Z,15.25
2023-04-09T13:05:04.490Z,15.19
2023-04-09T13:07:31.322Z,15.04
2023-04-09T13:09:58.418Z,14.90
2023-04-09T13:12:25.486Z,15.24
2023-04-09T13:14:54.363Z,15.36
2023-04-09T13:17:21.128Z,15.27
2023-04-09T13:19:47.971Z,14.18
2023-04-09T13:22:14.980Z,13.93
2023-04-09T13:24:43.113Z,14.28
2023-04-09T13:27:11.129Z,14.21
2023-04-09T13:29:38.369Z,14.10
2023-04-09T13:32:07.445Z,13.54
2023-04-09T13:34:35.294Z,13.76
2023-04-09T13:37:03.261Z,14.22
2023-04-09T13:39:30.079Z,14.26
2023-04-09T13:41:56.960Z,14.46
2023-04-09T13:44:25.103Z,14.60
2023-04-09T13:46:51.919Z,13.95
2023-04-09T13:49:18.755Z,12.77
2023-04-09T13:51:45.656Z,13.41
2023-04-09T13:54:12.453Z,13.94
2023-04-09T13:56:39.636Z,13.97
2023-04-09T13:59:06.553Z,12.31
2023-04-09T14:01:34.394Z,11.43
2023-04-09T14:04:01.274Z,12.18
2023-04-09T14:06:28.044Z,12.16
2023-04-09T14:08:55.292Z,12.00
2023-04-09T14:11:22.093Z,12.15
2023-04-09T14:13:48.737Z,11.99
2023-04-09T14:16:15.618Z,12.26
2023-04-09T14:18:42.303Z,12.35
2023-04-09T14:21:10.390Z,12.30
2023-04-09T14:23:38.690Z,11.71
2023-04-09T14:26:06.587Z,11.53
2023-04-09T14:28:33.393Z,11.68
2023-04-09T14:31:00.263Z,13.16
2023-04-09T14:33:27.287Z,12.31
2023-04-09T14:35:53.937Z,12.23
2023-04-09T14:38:20.762Z,11.41
2023-04-09T14:40:47.449Z,11.45
2023-04-09T14:43:14.121Z,12.62
2023-04-09T14:45:41.027Z,13.23
2023-04-09T14:48:08.060Z,13.38
2023-04-09T14:50:36.618Z,12.88
2023-04-09T14:53:04.153Z,13.34
2023-04-09T14:55:30.886Z,13.46
2023-04-09T14:57:59.599Z,13.43
2023-04-09T15:00:26.587Z,13.63
2023-04-09T15:02:53.396Z,13.47
2023-04-09T15:05:20.242Z,13.31
2023-04-09T15:07:46.949Z,13.19
2023-04-09T15:10:13.841Z,13.41
2023-04-09T15:12:40.674Z,13.28
2023-04-09T15:15:08.281Z,13.31
2023-04-09T15:17:35.801Z,13.18
2023-04-09T15:20:04.088Z,14.49
2023-04-09T15:22:30.904Z,14.03
2023-04-09T15:24:57.646Z,13.86
2023-04-09T15:27:24.418Z,14.38
2023-04-09T15:29:51.815Z,13.82
2023-04-09T15:32:19.112Z,14.31
2023-04-09T15:34:45.917Z,14.40
2023-04-09T15:37:12.616Z,14.17
2023-04-09T15:39:39.312Z,14.08
2023-04-09T15:42:07.884Z,13.52
2023-04-09T15:44:36.249Z,13.65
2023-04-09T15:47:03.039Z,13.06
2023-04-09T15:49:29.666Z,13.38
2023-04-09T15:51:56.267Z,13.57
2023-04-09T15:54:22.833Z,12.93
2023-04-09T15:56:49.888Z,13.13
2023-04-09T15:59:16.553Z,13.26
2023-04-09T16:01:43.446Z,12.75
2023-04-09T16:04:10.589Z,13.49
2023-04-09T16:06:40.316Z,13.58
2023-04-09T16:09:06.998Z,13.40
2023-04-09T16:11:35.887Z,13.85
2023-04-09T16:14:02.593Z,13.32
2023-04-09T16:16:29.490Z,13.88
2023-04-09T16:18:56.236Z,12.91
2023-04-09T16:21:22.873Z,12.92
2023-04-09T16:23:49.471Z,13.39
2023-04-09T16:26:16.055Z,13.51
2023-04-09T16:28:42.683Z,13.12
2023-04-09T16:31:09.324Z,13.69
2023-04-09T16:33:36.025Z,13.98
2023-04-09T16:36:02.736Z,14.30
2023-04-09T16:38:30.996Z,14.94
2023-04-09T16:40:57.686Z,14.84
2023-04-09T16:43:25.041Z,15.52
2023-04-09T16:45:52.185Z,15.69
2023-04-09T16:48:19.049Z,15.80
2023-04-09T16:50:45.847Z,15.12
2023-04-09T16:53:12.628Z,15.80
2023-04-09T16:55:39.271Z,14.94
2023-04-09T16:58:05.883Z,15.68
2023-04-09T17:00:32.469Z,16.42
2023-04-09T17:02:59.198Z,15.96
2023-04-09T17:05:26.249Z,15.63
2023-04-09T17:07:53.633Z,15.70
2023-04-09T17:10:20.798Z,15.80
2023-04-09T17:12:48.034Z,16.31
2023-04-09T17:15:14.798Z,15.74
2023-04-09T17:17:41.556Z,16.09
2023-04-09T17:20:08.614Z,15.77
2023-04-09T17:22:35.661Z,16.39
2023-04-09T17:25:02.532Z,16.03
2023-04-09T17:27:29.264Z,16.23
2023-04-09T17:29:56.441Z,17.31
2023-04-09T17:32:23.150Z,17.10
2023-04-09T17:34:49.835Z,16.37
2023-04-09T17:37:16.921Z,16.69
2023-04-09T17:39:43.545Z,16.97
2023-04-09T17:42:14.138Z,17.01
2023-04-09T17:44:42.089Z,17.23
2023-04-09T17:47:08.990Z,17.03
2023-04-09T17:49:37.725Z,17.02
2023-04-09T17:52:05.159Z,16.64
2023-04-09T17:54:33.837Z,16.66
2023-04-09T17:57:01.621Z,17.35
2023-04-09T17:59:28.963Z,17.02
2023-04-09T18:01:56.743Z,17.49
2023-04-09T18:04:24.406Z,17.14
2023-04-09T18:06:51.692Z,16.70
2023-04-09T18:09:18.875Z,16.87
2023-04-09T18:11:46.368Z,15.97
2023-04-09T18:14:13.159Z,16.48
2023-04-09T18:16:40.105Z,16.56
2023-04-09T18:19:07.996Z,15.66
2023-04-09T18:21:37.714Z,16.38
2023-04-09T18:24:06.004Z,16.66
2023-04-09T18:26:33.847Z,16.50
2023-04-09T18:31:43.033Z,15.53
2023-04-09T18:34:09.740Z,16.30
2023-04-09T18:36:36.377Z,16.13
2023-04-09T18:39:04.866Z,16.32
2023-04-09T18:41:31.533Z,15.74
2023-04-09T18:43:58.184Z,16.02
2023-04-09T18:46:24.853Z,16.50
2023-04-09T18:48:51.944Z,15.41
2023-04-09T18:51:20.647Z,15.30
2023-04-09T18:53:52.681Z,16.05
2023-04-09T18:56:20.358Z,15.61
2023-04-09T18:58:48.568Z,16.58
2023-04-09T19:01:17.287Z,15.93
2023-04-09T19:03:44.930Z,16.08
2023-04-09T19:06:18.039Z,16.87
2023-04-09T19:08:45.466Z,17.68
2023-04-09T19:11:12.658Z,17.26
2023-04-09T19:13:39.347Z,17.55
2023-04-09T19:16:09.292Z,17.31
2023-04-09T19:18:37.675Z,17.19
2023-04-09T19:21:05.703Z,17.88
2023-04-09T19:23:34.282Z,18.12
2023-04-09T19:26:02.376Z,18.17
2023-04-09T19:28:31.990Z,17.98
2023-04-09T19:31:06.338Z,18.48
2023-04-09T19:33:32.985Z,18.65
2023-04-09T19:35:59.708Z,18.94
2023-04-09T19:38:26.377Z,19.73
2023-04-09T19:40:52.956Z,20.22
2023-04-09T19:43:19.578Z,20.69
2023-04-09T19:45:46.256Z,20.82
2023-04-09T19:48:13.000Z,20.67
2023-04-09T19:50:43.584Z,20.47
2023-04-09T19:53:10.870Z,20.30
2023-04-09T19:55:37.762Z,20.03
2023-04-09T19:58:05.489Z,19.35
2023-04-09T20:00:35.545Z,20.10
2023-04-09T20:03:03.201Z,19.59
2023-04-09T20:05:30.050Z,20.63
2023-04-09T20:07:56.752Z,19.76
2023-04-09T20:10:23.512Z,19.68
2023-04-09T20:12:51.220Z,19.37
2023-04-09T20:15:21.303Z,19.33
2023-04-09T20:17:48.918Z,20.42
2023-04-09T20:20:20.149Z,19.93
2023-04-09T20:22:55.709Z,19.41
2023-04-09T20:25:24.563Z,18.69
2023-04-09T20:27:54.681Z,19.03
2023-04-09T20:30:21.565Z,19.65
2023-04-09T20:32:49.008Z,19.29
2023-04-09T20:35:16.005Z,19.47
2023-04-09T20:37:42.699Z,19.02
2023-04-09T20:40:09.875Z,19.28
2023-04-09T20:42:36.550Z,19.65
2023-04-09T20:45:03.469Z,18.92
2023-04-09T20:47:30.375Z,18.59
2023-04-09T20:49:59.836Z,18.89
2023-04-09T20:52:30.425Z,18.64
2023-04-09T20:54:57.511Z,18.48
2023-04-09T20:57:24.863Z,18.62
2023-04-09T20:59:52.856Z,18.68
2023-04-09T21:02:21.110Z,18.87
2023-04-09T21:04:47.882Z,19.49
2023-04-09T21:07:14.655Z,20.17
2023-04-09T21:09:41.518Z,19.50
2023-04-09T21:12:08.214Z,18.88
2023-04-09T21:14:34.861Z,19.27
2023-04-09T21:17:01.599Z,20.34
2023-04-09T21:19:28.251Z,21.64
2023-04-09T21:21:55.045Z,22.16
2023-04-09T21:24:21.746Z,22.75
2023-04-09T21:26:50.992Z,22.25
2023-04-09T21:29:20.291Z,23.86
2023-04-09T21:31:47.957Z,22.57
2023-04-09T21:34:14.665Z,24.76
2023-04-09T21:36:41.350Z,25.12
2023-04-09T21:39:07.939Z,24.53
2023-04-09T21:41:34.867Z,24.05
2023-04-09T21:44:07.826Z,24.41
2023-04-09T21:46:36.728Z,25.34
2023-04-09T21:49:03.966Z,24.72
2023-04-09T21:51:31.337Z,24.38
2023-04-09T21:54:06.263Z,23.32
2023-04-09T21:56:33.697Z,22.46
2023-04-09T21:59:01.217Z,24.02
2023-04-09T22:01:31.101Z,26.69
2023-04-09T22:03:59.111Z,25.50
2023-04-09T22:06:29.499Z,24.65
2023-04-09T22:08:58.040Z,23.54
2023-04-09T22:11:27.567Z,24.45
2023-04-09T22:13:56.707Z,26.04
2023-04-09T22:16:24.210Z,24.14
2023-04-09T22:18:51.490Z,24.97
2023-04-09T22:21:18.424Z,25.34
2023-04-09T22:23:45.322Z,26.43
2023-04-09T22:26:11.964Z,27.18
2023-04-09T22:28:38.648Z,26.24
2023-04-09T22:31:06.019Z,26.59
2023-04-09T22:33:32.865Z,26.08
2023-04-09T22:35:59.844Z,25.51
2023-04-09T22:38:26.873Z,26.53
2023-04-09T22:40:53.514Z,25.63
2023-04-09T22:43:20.313Z,24.59
2023-04-09T22:45:51.269Z,23.70
2023-04-09T22:48:18.781Z,24.53
2023-04-09T22:50:45.948Z,24.83
2023-04-09T22:53:18.281Z,24.22
2023-04-09T22:55:47.409Z,23.41
2023-04-09T22:58:14.554Z,24.21
2023-04-09T23:00:41.235Z,26.50
2023-04-09T23:03:08.052Z,27.06
2023-04-09T23:05:35.368Z,27.66
2023-04-09T23:08:02.232Z,27.06
2023-04-09T23:10:28.789Z,26.82
2023-04-09T23:12:55.416Z,26.56
2023-04-09T23:15:22.020Z,25.66
2023-04-09T23:17:51.076Z,26.77
2023-04-09T23:20:17.780Z,27.79
2023-04-09T23:22:47.446Z,27.79
2023-04-09T23:25:15.454Z,27.90
2023-04-09T23:27:42.789Z,26.76
2023-04-09T23:30:10.240Z,27.82
2023-04-09T23:32:37.113Z,27.69
2023-04-09T23:35:04.288Z,27.22
2023-04-09T23:37:31.104Z,27.60
2023-04-09T23:39:57.886Z,27.62
2023-04-09T23:42:24.504Z,27.41
2023-04-09T23:44:51.300Z,27.81
2023-04-09T23:47:18.083Z,27.95
2023-04-09T23:49:44.957Z,27.54
2023-04-09T23:52:11.570Z,28.02
2023-04-09T23:54:38.165Z,26.96
2023-04-09T23:57:04.787Z,26.68
2023-04-09T23:59:33.913Z,27.14
